createdAt,value
2024-05-09T00:00:30.549Z,85.89
2024-05-09T00:01:23.996Z,85.89
2024-05-09T00:02:24.313Z,85.95
2024-05-09T00:03:23.965Z,85.27
2024-05-09T00:04:23.878Z,84.55
2024-05-09T00:05:23.921Z,84.76
2024-05-09T00:06:23.790Z,84.45
2024-05-09T00:07:24.034Z,84.76
2024-05-09T00:08:23.762Z,84.52
2024-05-09T00:09:23.697Z,84.61
2024-05-09T00:10:32.637Z,84.61
2024-05-09T00:11:23.837Z,84.61
2024-05-09T00:12:29.279Z,84.52
2024-05-09T00:13:23.852Z,84.68
2024-05-09T00:14:23.590Z,84.17
2024-05-09T00:15:23.494Z,83.25
2024-05-09T00:16:23.458Z,83.20
2024-05-09T00:17:23.582Z,82.39
2024-05-09T00:18:23.815Z,82.79
2024-05-09T00:19:23.489Z,82.69
2024-05-09T00:20:28.588Z,82.55
2024-05-09T00:21:23.291Z,83.06
2024-05-09T00:22:23.247Z,82.65
2024-05-09T00:23:23.525Z,82.86
2024-05-09T00:24:23.182Z,82.86
2024-05-09T00:25:23.145Z,82.76
2024-05-09T00:26:23.209Z,82.55
2024-05-09T00:27:23.348Z,81.94
2024-05-09T00:28:23.048Z,81.73
2024-05-09T00:29:23.058Z,81.59
2024-05-09T00:30:31.618Z,81.59
2024-05-09T00:31:22.955Z,81.79
2024-05-09T00:32:23.354Z,81.59
2024-05-09T00:33:23.182Z,81.79
2024-05-09T00:34:22.917Z,81.79
2024-05-09T00:35:23.102Z,81.70
2024-05-09T00:36:22.786Z,81.59
2024-05-09T00:37:23.034Z,82.31
2024-05-09T00:38:22.790Z,81.90
2024-05-09T00:39:22.679Z,81.79
2024-05-09T00:40:30.972Z,81.79
2024-05-09T00:41:22.639Z,81.65
2024-05-09T00:42:22.848Z,81.59
2024-05-09T00:43:22.545Z,81.65
2024-05-09T00:44:22.555Z,81.96
2024-05-09T00:45:22.479Z,81.56
2024-05-09T00:46:22.449Z,81.56
2024-05-09T00:47:22.948Z,81.76
2024-05-09T00:48:22.553Z,82.68
2024-05-09T00:49:22.447Z,82.27
2024-05-09T00:50:29.461Z,81.65
2024-05-09T00:51:28.757Z,81.76
2024-05-09T00:52:22.520Z,82.07
2024-05-09T00:53:22.227Z,83.19
2024-05-09T00:54:22.182Z,82.78
2024-05-09T00:55:22.143Z,82.78
2024-05-09T00:56:22.183Z,82.78
2024-05-09T00:57:22.349Z,82.78
2024-05-09T00:58:22.043Z,82.78
2024-05-09T00:59:22.063Z,82.17
2024-05-09T01:00:27.413Z,83.29
2024-05-09T01:01:22.004Z,82.89
2024-05-09T01:02:22.274Z,82.89
2024-05-09T01:03:22.645Z,82.68
2024-05-09T01:04:22.796Z,83.19
2024-05-09T01:05:21.833Z,82.98
2024-05-09T01:06:21.782Z,82.78
2024-05-09T01:07:22.025Z,82.68
2024-05-09T01:08:21.812Z,82.78
2024-05-09T01:09:21.689Z,82.57
2024-05-09T01:10:27.961Z,82.89
2024-05-09T01:11:21.663Z,82.68
2024-05-09T01:12:21.964Z,83.09
2024-05-09T01:13:21.546Z,82.98
2024-05-09T01:14:21.589Z,82.57
2024-05-09T01:15:21.514Z,82.68
2024-05-09T01:16:21.449Z,82.78
2024-05-09T01:17:21.814Z,82.57
2024-05-09T01:18:21.525Z,82.68
2024-05-09T01:19:21.565Z,83.29
2024-05-09T01:20:31.759Z,82.89
2024-05-09T01:21:21.324Z,82.98
2024-05-09T01:22:21.530Z,82.68
2024-05-09T01:23:21.235Z,82.17
2024-05-09T01:24:21.196Z,82.48
2024-05-09T01:25:21.141Z,82.48
2024-05-09T01:26:21.246Z,82.57
2024-05-09T01:27:21.177Z,82.17
2024-05-09T01:28:21.068Z,82.27
2024-05-09T01:29:21.081Z,82.27
2024-05-09T01:30:24.613Z,82.13
2024-05-09T01:31:20.955Z,82.17
2024-05-09T01:32:21.460Z,82.23
2024-05-09T01:33:21.081Z,83.09
2024-05-09T01:34:20.973Z,82.68
2024-05-09T01:35:20.915Z,82.48
2024-05-09T01:36:20.777Z,82.89
2024-05-09T01:37:21.029Z,82.75
2024-05-09T01:38:20.745Z,82.68
2024-05-09T01:39:20.683Z,82.68
2024-05-09T01:40:28.553Z,83.19
2024-05-09T01:41:20.652Z,82.89
2024-05-09T01:42:20.871Z,83.09
2024-05-09T01:43:20.547Z,83.19
2024-05-09T01:44:20.569Z,83.09
2024-05-09T01:45:20.476Z,83.29
2024-05-09T01:46:20.450Z,84.31
2024-05-09T01:47:20.701Z,83.91
2024-05-09T01:48:20.506Z,84.01
2024-05-09T01:49:20.451Z,84.31
2024-05-09T01:50:33.019Z,84.11
2024-05-09T01:51:20.299Z,84.52
2024-05-09T01:52:20.250Z,83.91
2024-05-09T01:53:20.253Z,84.15
2024-05-09T01:54:20.186Z,84.77
2024-05-09T01:55:20.145Z,84.56
2024-05-09T01:56:20.143Z,84.56
2024-05-09T01:57:20.078Z,84.36
2024-05-09T01:58:20.324Z,84.56
2024-05-09T01:59:20.822Z,84.56
2024-05-09T02:00:30.208Z,84.25
2024-05-09T02:01:20.871Z,84.25
2024-05-09T02:02:20.071Z,84.56
2024-05-09T02:03:20.285Z,84.36
2024-05-09T02:04:20.128Z,84.80
2024-05-09T02:05:19.880Z,84.80
2024-05-09T02:06:19.784Z,85.01
2024-05-09T02:07:19.748Z,85.11
2024-05-09T02:08:20.180Z,85.46
2024-05-09T02:09:19.679Z,86.38
2024-05-09T02:10:25.972Z,85.97
2024-05-09T02:11:19.658Z,86.28
2024-05-09T02:12:19.698Z,86.18
2024-05-09T02:13:19.828Z,86.58
2024-05-09T02:14:19.555Z,86.63
2024-05-09T02:15:19.508Z,86.73
2024-05-09T02:16:19.439Z,87.14
2024-05-09T02:17:20.447Z,86.32
2024-05-09T02:18:20.435Z,86.83
2024-05-09T02:19:19.511Z,87.28
2024-05-09T02:20:29.944Z,87.18
2024-05-09T02:21:19.394Z,87.22
2024-05-09T02:22:19.237Z,87.70
2024-05-09T02:23:19.502Z,88.04
2024-05-09T02:24:19.167Z,88.39
2024-05-09T02:25:19.131Z,88.90
2024-05-09T02:26:19.834Z,88.90
2024-05-09T02:27:19.092Z,89.01
2024-05-09T02:28:19.316Z,89.21
2024-05-09T02:29:19.147Z,89.21
2024-05-09T02:30:26.316Z,89.21
2024-05-09T02:31:18.936Z,89.42
2024-05-09T02:32:19.112Z,90.03
2024-05-09T02:33:19.269Z,90.08
2024-05-09T02:34:18.898Z,89.97
2024-05-09T02:35:18.842Z,89.76
2024-05-09T02:36:18.765Z,90.18
2024-05-09T02:37:18.735Z,90.38
2024-05-09T02:38:19.051Z,90.48
2024-05-09T02:39:18.662Z,90.63
2024-05-09T02:40:25.434Z,90.32
2024-05-09T02:41:18.651Z,91.04
2024-05-09T02:42:18.559Z,90.94
2024-05-09T02:43:18.799Z,91.35
2024-05-09T02:44:18.573Z,91.66
2024-05-09T02:45:18.526Z,91.49
2024-05-09T02:46:19.311Z,91.39
2024-05-09T02:47:18.514Z,91.70
2024-05-09T02:48:18.791Z,92.32
2024-05-09T02:49:18.515Z,92.36
2024-05-09T02:50:26.569Z,92.16
2024-05-09T02:51:18.299Z,91.74
2024-05-09T02:52:18.217Z,92.50
2024-05-09T02:53:18.510Z,92.16
2024-05-09T02:54:18.146Z,92.61
2024-05-09T02:55:18.127Z,93.43
2024-05-09T02:56:18.121Z,93.64
2024-05-09T02:57:18.060Z,94.15
2024-05-09T02:58:18.280Z,93.95
2024-05-09T02:59:18.052Z,94.15
2024-05-09T03:00:22.841Z,94.30
2024-05-09T03:01:17.963Z,94.71
2024-05-09T03:02:18.009Z,95.53
2024-05-09T03:03:18.355Z,95.27
2024-05-09T03:04:17.859Z,95.48
2024-05-09T03:05:17.793Z,95.02
2024-05-09T03:06:17.737Z,94.96
2024-05-09T03:07:20.072Z,95.17
2024-05-09T03:08:18.208Z,95.48
2024-05-09T03:09:17.627Z,95.99
2024-05-09T03:10:22.439Z,95.99
2024-05-09T03:11:17.725Z,95.99
2024-05-09T03:12:17.611Z,96.09
2024-05-09T03:13:17.770Z,96.20
2024-05-09T03:14:17.501Z,96.20
2024-05-09T03:15:18.362Z,95.74
2024-05-09T03:16:17.396Z,95.74
2024-05-09T03:17:17.482Z,95.84
2024-05-09T03:18:17.628Z,96.25
2024-05-09T03:19:17.468Z,96.30
2024-05-09T03:20:23.630Z,95.74
2024-05-09T03:21:17.249Z,95.43
2024-05-09T03:22:17.188Z,95.27
2024-05-09T03:23:17.456Z,95.23
2024-05-09T03:24:18.812Z,95.58
2024-05-09T03:25:17.083Z,95.95
2024-05-09T03:26:17.892Z,95.53
2024-05-09T03:27:17.013Z,95.84
2024-05-09T03:28:16.969Z,95.33
2024-05-09T03:29:18.357Z,95.12
2024-05-09T03:30:29.168Z,95.23
2024-05-09T03:31:16.873Z,95.43
2024-05-09T03:32:16.989Z,95.08
2024-05-09T03:33:17.664Z,95.08
2024-05-09T03:34:17.075Z,94.98
2024-05-09T03:35:16.838Z,94.98
2024-05-09T03:36:16.716Z,95.59
2024-05-09T03:37:16.673Z,94.77
2024-05-09T03:38:16.912Z,94.56
2024-05-09T03:39:16.862Z,94.05
2024-05-09T03:40:23.365Z,94.15
2024-05-09T03:41:16.558Z,94.67
2024-05-09T03:42:16.511Z,94.36
2024-05-09T03:43:16.471Z,94.36
2024-05-09T03:44:16.740Z,94.05
2024-05-09T03:45:16.418Z,94.15
2024-05-09T03:46:16.356Z,94.56
2024-05-09T03:47:16.480Z,94.46
2024-05-09T03:48:16.574Z,94.46
2024-05-09T03:49:16.675Z,94.26
2024-05-09T03:50:22.627Z,94.46
2024-05-09T03:51:16.222Z,94.36
2024-05-09T03:52:16.188Z,94.56
2024-05-09T03:53:16.318Z,94.11
2024-05-09T03:54:16.374Z,94.11
2024-05-09T03:55:16.039Z,93.90
2024-05-09T03:56:16.025Z,94.01
2024-05-09T03:57:15.998Z,93.90
2024-05-09T03:58:15.946Z,94.15
2024-05-09T03:59:16.216Z,94.15
2024-05-09T04:00:22.124Z,94.26
2024-05-09T04:01:15.879Z,94.36
2024-05-09T04:02:15.907Z,94.15
2024-05-09T04:03:16.117Z,94.46
2024-05-09T04:04:15.764Z,94.11
2024-05-09T04:05:16.077Z,94.31
2024-05-09T04:06:15.659Z,94.17
2024-05-09T04:07:15.625Z,93.51
2024-05-09T04:08:15.957Z,92.44
2024-05-09T04:09:15.564Z,91.93
2024-05-09T04:10:24.030Z,91.78
2024-05-09T04:11:15.577Z,90.81
2024-05-09T04:12:15.539Z,90.52
2024-05-09T04:13:15.437Z,89.60
2024-05-09T04:14:15.699Z,88.33
2024-05-09T04:15:15.354Z,87.61
2024-05-09T04:16:15.314Z,87.76
2024-05-09T04:17:15.411Z,88.37
2024-05-09T04:18:15.289Z,88.56
2024-05-09T04:19:15.686Z,89.37
2024-05-09T04:20:24.602Z,89.99
2024-05-09T04:21:15.190Z,90.34
2024-05-09T04:22:15.107Z,90.69
2024-05-09T04:23:15.307Z,91.41
2024-05-09T04:24:15.318Z,91.82
2024-05-09T04:25:15.009Z,91.61
2024-05-09T04:26:14.998Z,92.13
2024-05-09T04:27:14.948Z,92.13
2024-05-09T04:28:14.958Z,91.51
2024-05-09T04:29:15.220Z,91.16
2024-05-09T04:30:21.802Z,91.47
2024-05-09T04:31:14.811Z,91.37
2024-05-09T04:32:14.808Z,91.61
2024-05-09T04:33:15.376Z,91.57
2024-05-09T04:34:15.103Z,91.57
2024-05-09T04:35:14.755Z,91.61
2024-05-09T04:36:14.634Z,91.93
2024-05-09T04:37:14.610Z,91.78
2024-05-09T04:38:15.674Z,91.93
2024-05-09T04:39:14.527Z,91.88
2024-05-09T04:40:24.185Z,91.99
2024-05-09T04:41:14.511Z,92.13
2024-05-09T04:42:14.433Z,91.82
2024-05-09T04:43:14.695Z,91.67
2024-05-09T04:44:14.391Z,92.08
2024-05-09T04:45:14.325Z,91.99
2024-05-09T04:46:14.297Z,91.67
2024-05-09T04:47:14.363Z,91.37
2024-05-09T04:48:14.805Z,91.37
2024-05-09T04:49:14.435Z,91.37
2024-05-09T04:50:21.179Z,91.16
2024-05-09T04:51:14.200Z,91.37
2024-05-09T04:52:14.122Z,91.37
2024-05-09T04:53:14.364Z,91.22
2024-05-09T04:54:25.988Z,90.30
2024-05-09T04:55:13.991Z,90.71
2024-05-09T04:56:14.058Z,90.65
2024-05-09T04:57:13.918Z,90.61
2024-05-09T04:58:14.159Z,89.99
2024-05-09T04:59:13.877Z,90.20
2024-05-09T05:00:15.027Z,90.20
2024-05-09T05:01:14.383Z,90.50
2024-05-09T05:02:13.782Z,90.36
2024-05-09T05:03:15.872Z,89.60
2024-05-09T05:04:13.726Z,88.84
2024-05-09T05:05:13.777Z,88.74
2024-05-09T05:06:13.611Z,87.22
2024-05-09T05:07:13.580Z,86.36
2024-05-09T05:08:14.271Z,86.02
2024-05-09T05:09:13.608Z,84.95
2024-05-09T05:10:21.399Z,84.48
2024-05-09T05:11:13.788Z,84.42
2024-05-09T05:12:13.505Z,84.63
2024-05-09T05:13:13.677Z,85.14
2024-05-09T05:14:13.403Z,84.69
2024-05-09T05:15:13.329Z,84.44
2024-05-09T05:16:13.355Z,83.24
2024-05-09T05:17:13.300Z,82.28
2024-05-09T05:18:13.618Z,80.71
2024-05-09T05:19:16.130Z,80.44
2024-05-09T05:20:17.834Z,80.96
2024-05-09T05:21:13.305Z,81.37
2024-05-09T05:22:13.105Z,81.60
2024-05-09T05:23:13.693Z,82.56
2024-05-09T05:24:13.015Z,82.91
2024-05-09T05:25:20.017Z,83.66
2024-05-09T05:26:12.950Z,84.07
2024-05-09T05:27:13.304Z,84.42
2024-05-09T05:28:14.409Z,84.63
2024-05-09T05:29:12.889Z,84.72
2024-05-09T05:30:21.026Z,84.77
2024-05-09T05:31:12.789Z,84.97
2024-05-09T05:32:13.147Z,85.38
2024-05-09T05:33:13.076Z,85.69
2024-05-09T05:34:12.715Z,85.89
2024-05-09T05:35:12.679Z,86.20
2024-05-09T05:36:12.622Z,86.20
2024-05-09T05:37:12.606Z,85.99
2024-05-09T05:38:12.581Z,86.10
2024-05-09T05:39:12.526Z,85.38
2024-05-09T05:40:20.639Z,86.14
2024-05-09T05:41:12.581Z,85.99
2024-05-09T05:42:12.707Z,85.58
2024-05-09T05:43:12.421Z,85.17
2024-05-09T05:44:12.370Z,85.17
2024-05-09T05:45:12.329Z,85.28
2024-05-09T05:46:12.284Z,85.07
2024-05-09T05:47:12.668Z,85.38
2024-05-09T05:48:12.324Z,86.16
2024-05-09T05:49:12.415Z,85.24
2024-05-09T05:50:23.619Z,85.75
2024-05-09T05:51:12.572Z,85.55
2024-05-09T05:52:12.087Z,85.34
2024-05-09T05:53:12.126Z,85.64
2024-05-09T05:54:12.017Z,84.83
2024-05-09T05:55:12.018Z,84.63
2024-05-09T05:56:12.269Z,85.03
2024-05-09T05:57:11.920Z,84.93
2024-05-09T05:58:12.042Z,84.38
2024-05-09T05:59:14.074Z,84.38
2024-05-09T06:00:18.057Z,84.48
2024-05-09T06:01:12.079Z,84.48
2024-05-09T06:02:11.825Z,84.28
2024-05-09T06:03:12.480Z,84.34
2024-05-09T06:04:11.838Z,84.48
2024-05-09T06:05:11.771Z,84.34
2024-05-09T06:06:11.943Z,84.34
2024-05-09T06:07:11.596Z,84.44
2024-05-09T06:08:11.741Z,84.14
2024-05-09T06:09:11.522Z,84.34
2024-05-09T06:10:17.671Z,84.41
2024-05-09T06:11:11.890Z,84.00
2024-05-09T06:12:11.592Z,83.48
2024-05-09T06:13:11.918Z,83.79
2024-05-09T06:14:11.377Z,84.09
2024-05-09T06:15:11.593Z,83.48
2024-05-09T06:16:11.286Z,83.34
2024-05-09T06:17:11.404Z,83.34
2024-05-09T06:18:12.461Z,83.04
2024-05-09T06:19:11.300Z,82.93
2024-05-09T06:20:20.182Z,82.73
2024-05-09T06:21:11.221Z,83.24
2024-05-09T06:22:11.917Z,83.24
2024-05-09T06:23:11.156Z,83.10
2024-05-09T06:24:11.028Z,83.81
2024-05-09T06:25:11.287Z,83.71
2024-05-09T06:26:11.002Z,83.30
2024-05-09T06:27:10.927Z,82.86
2024-05-09T06:28:10.897Z,82.75
2024-05-09T06:29:10.882Z,82.55
2024-05-09T06:30:21.158Z,82.45
2024-05-09T06:31:10.790Z,82.45
2024-05-09T06:32:10.855Z,81.63
2024-05-09T06:33:12.666Z,81.43
2024-05-09T06:34:10.741Z,80.71
2024-05-09T06:35:10.707Z,81.02
2024-05-09T06:36:10.640Z,80.20
2024-05-09T06:37:10.601Z,79.59
2024-05-09T06:38:11.072Z,78.77
2024-05-09T06:39:10.530Z,78.64
2024-05-09T06:40:12.537Z,78.02
2024-05-09T06:41:10.517Z,77.82
2024-05-09T06:42:10.432Z,77.48
2024-05-09T06:43:18.384Z,77.31
2024-05-09T06:44:10.396Z,76.87
2024-05-09T06:45:10.644Z,76.25
2024-05-09T06:46:10.304Z,75.95
2024-05-09T06:47:10.370Z,75.95
2024-05-09T06:48:10.704Z,76.12
2024-05-09T06:49:10.431Z,76.08
2024-05-09T06:50:19.626Z,75.78
2024-05-09T06:51:10.293Z,75.47
2024-05-09T06:52:10.104Z,75.43
2024-05-09T06:53:10.159Z,75.57
2024-05-09T06:54:10.038Z,74.72
2024-05-09T06:55:10.048Z,74.32
2024-05-09T06:56:10.060Z,74.41
2024-05-09T06:57:09.948Z,73.50
2024-05-09T06:58:09.998Z,73.47
2024-05-09T06:59:09.941Z,72.45
2024-05-09T07:00:15.518Z,72.75
2024-05-09T07:01:09.860Z,72.34
2024-05-09T07:02:09.842Z,72.45
2024-05-09T07:03:10.784Z,72.34
2024-05-09T07:04:09.924Z,72.34
2024-05-09T07:05:09.767Z,72.31
2024-05-09T07:06:09.776Z,72.52
2024-05-09T07:07:09.617Z,72.52
2024-05-09T07:08:09.743Z,71.80
2024-05-09T07:09:09.584Z,71.09
2024-05-09T07:10:14.971Z,71.67
2024-05-09T07:11:09.630Z,72.17
2024-05-09T07:12:09.554Z,72.72
2024-05-09T07:13:09.447Z,72.69
2024-05-09T07:14:09.450Z,73.09
2024-05-09T07:15:09.372Z,73.39
2024-05-09T07:16:09.330Z,71.94
2024-05-09T07:17:09.504Z,72.34
2024-05-09T07:18:09.878Z,70.92
2024-05-09T07:19:09.756Z,70.72
2024-05-09T07:20:13.972Z,71.03
2024-05-09T07:21:09.234Z,71.12
2024-05-09T07:22:09.141Z,70.01
2024-05-09T07:23:09.435Z,68.69
2024-05-09T07:24:09.092Z,69.09
2024-05-09T07:25:09.048Z,68.59
2024-05-09T07:26:09.044Z,69.20
2024-05-09T07:27:08.991Z,69.30
2024-05-09T07:28:09.684Z,69.57
2024-05-09T07:29:08.974Z,69.87
2024-05-09T07:30:11.529Z,68.45
2024-05-09T07:31:09.382Z,69.34
2024-05-09T07:32:09.589Z,68.52
2024-05-09T07:33:09.201Z,68.42
2024-05-09T07:34:08.848Z,68.73
2024-05-09T07:35:10.424Z,67.10
2024-05-09T07:36:08.820Z,67.41
2024-05-09T07:37:09.441Z,68.25
2024-05-09T07:38:08.752Z,67.94
2024-05-09T07:39:08.594Z,68.22
2024-05-09T07:40:11.974Z,69.23
2024-05-09T07:41:08.589Z,68.32
2024-05-09T07:42:08.779Z,68.22
2024-05-09T07:43:08.544Z,69.03
2024-05-09T07:44:08.477Z,68.42
2024-05-09T07:45:29.548Z,69.54
2024-05-09T07:47:13.765Z,69.54
2024-05-09T07:48:14.684Z,69.54
2024-05-09T07:53:22.146Z,69.81
2024-05-09T07:53:36.597Z,67.98
2024-05-09T07:54:08.581Z,67.38
2024-05-09T07:55:08.227Z,68.39
2024-05-09T07:56:09.375Z,68.15
2024-05-09T07:57:08.322Z,67.65
2024-05-09T07:58:08.075Z,67.95
2024-05-09T07:59:07.963Z,68.05
2024-05-09T08:00:08.283Z,68.56
2024-05-09T08:01:07.938Z,68.52
2024-05-09T08:02:08.384Z,68.93
2024-05-09T08:03:07.905Z,68.93
2024-05-09T08:04:07.952Z,67.11
2024-05-09T08:05:08.016Z,67.31
2024-05-09T08:06:07.745Z,67.00
2024-05-09T08:07:08.055Z,68.02
2024-05-09T08:08:07.682Z,65.99
2024-05-09T08:09:11.149Z,66.53
2024-05-09T08:10:10.672Z,66.63
2024-05-09T08:11:07.614Z,65.72
2024-05-09T08:12:07.817Z,65.21
2024-05-09T08:13:07.726Z,65.28
2024-05-09T08:14:07.495Z,65.48
2024-05-09T08:15:07.458Z,65.08
2024-05-09T08:16:07.470Z,64.58
2024-05-09T08:17:07.771Z,65.39
2024-05-09T08:18:07.584Z,65.89
2024-05-09T08:19:07.496Z,67.00
2024-05-09T08:20:07.666Z,66.80
2024-05-09T08:21:07.266Z,67.72
2024-05-09T08:22:07.606Z,66.70
2024-05-09T08:23:07.212Z,66.70
2024-05-09T08:24:07.168Z,67.72
2024-05-09T08:25:07.196Z,67.11
2024-05-09T08:26:07.099Z,67.08
2024-05-09T08:27:07.377Z,66.67
2024-05-09T08:28:07.108Z,66.77
2024-05-09T08:29:07.009Z,66.54
2024-05-09T08:30:10.271Z,66.33
2024-05-09T08:31:07.503Z,66.74
2024-05-09T08:32:07.232Z,66.84
2024-05-09T08:33:07.966Z,66.33
2024-05-09T08:34:07.079Z,66.54
2024-05-09T08:35:06.867Z,65.02
2024-05-09T08:36:06.786Z,65.42
2024-05-09T08:37:13.130Z,64.82
2024-05-09T08:38:07.145Z,64.21
2024-05-09T08:39:06.696Z,64.61
2024-05-09T08:40:11.017Z,65.12
2024-05-09T08:41:06.632Z,65.53
2024-05-09T08:42:06.889Z,65.12
2024-05-09T08:43:06.673Z,64.72
2024-05-09T08:44:06.550Z,64.92
2024-05-09T08:45:06.522Z,65.53
2024-05-09T08:46:06.508Z,65.19
2024-05-09T08:47:06.752Z,65.50
2024-05-09T08:48:06.616Z,64.69
2024-05-09T08:49:06.508Z,64.18
2024-05-09T08:50:08.645Z,64.79
2024-05-09T08:51:06.324Z,65.09
2024-05-09T08:52:06.687Z,64.86
2024-05-09T08:53:06.268Z,65.36
2024-05-09T08:54:06.228Z,64.79
2024-05-09T08:55:06.237Z,65.59
2024-05-09T08:56:06.201Z,65.56
2024-05-09T08:57:06.163Z,64.76
2024-05-09T08:58:06.300Z,63.04
2024-05-09T08:59:06.072Z,63.24
2024-05-09T09:00:10.015Z,64.65
2024-05-09T09:01:06.175Z,64.76
2024-05-09T09:02:06.082Z,63.61
2024-05-09T09:03:06.138Z,62.12
2024-05-09T09:04:06.146Z,61.72
2024-05-09T09:05:05.993Z,61.92
2024-05-09T09:06:05.868Z,61.90
2024-05-09T09:07:06.143Z,63.31
2024-05-09T09:08:05.794Z,60.88
2024-05-09T09:09:05.763Z,59.80
2024-05-09T09:10:08.585Z,59.36
2024-05-09T09:11:05.979Z,59.47
2024-05-09T09:12:07.259Z,58.86
2024-05-09T09:13:05.738Z,59.97
2024-05-09T09:14:05.617Z,58.99
2024-05-09T09:15:05.581Z,59.80
2024-05-09T09:16:06.509Z,60.38
2024-05-09T09:17:05.792Z,61.16
2024-05-09T09:18:07.338Z,62.57
2024-05-09T09:19:05.616Z,60.05
2024-05-09T09:20:06.975Z,59.54
2024-05-09T09:21:05.388Z,57.01
2024-05-09T09:22:05.958Z,57.72
2024-05-09T09:23:05.364Z,56.61
2024-05-09T09:24:06.982Z,55.69
2024-05-09T09:25:05.375Z,59.03
2024-05-09T09:26:06.482Z,60.65
2024-05-09T09:27:05.208Z,60.93
2024-05-09T09:28:05.263Z,60.12
2024-05-09T09:29:05.146Z,60.72
2024-05-09T09:30:08.856Z,60.32
2024-05-09T09:31:05.530Z,59.91
2024-05-09T09:32:05.059Z,59.41
2024-05-09T09:33:05.475Z,59.41
2024-05-09T09:34:05.102Z,58.80
2024-05-09T09:35:05.042Z,58.80
2024-05-09T09:36:06.831Z,58.00
2024-05-09T09:37:04.982Z,59.31
2024-05-09T09:38:04.873Z,58.50
2024-05-09T09:39:04.841Z,57.69
2024-05-09T09:40:06.895Z,58.09
2024-05-09T09:41:05.096Z,59.21
2024-05-09T09:42:04.757Z,58.09
2024-05-09T09:43:04.780Z,57.56
2024-05-09T09:44:04.686Z,57.87
2024-05-09T09:45:05.751Z,57.16
2024-05-09T09:46:06.327Z,56.05
2024-05-09T09:47:04.644Z,56.76
2024-05-09T09:48:04.663Z,57.16
2024-05-09T09:49:04.605Z,56.15
2024-05-09T09:51:04.752Z,56.02
2024-05-09T09:52:04.943Z,53.63
2024-05-09T09:53:04.435Z,53.32
2024-05-09T09:54:04.383Z,51.81
2024-05-09T09:55:04.415Z,53.65
2024-05-09T09:56:04.594Z,54.23
2024-05-09T09:57:04.294Z,55.67
2024-05-09T09:58:04.610Z,55.77
2024-05-09T09:59:04.236Z,55.44
2024-05-09T10:00:09.412Z,54.96
2024-05-09T10:01:04.555Z,56.88
2024-05-09T10:02:04.403Z,55.87
2024-05-09T10:03:04.145Z,56.88
2024-05-09T10:04:04.176Z,55.65
2024-05-09T10:05:04.170Z,55.36
2024-05-09T10:06:04.291Z,57.36
2024-05-09T10:07:04.043Z,57.87
2024-05-09T10:08:03.967Z,56.35
2024-05-09T10:09:03.927Z,57.67
2024-05-09T10:10:05.108Z,57.56
2024-05-09T10:11:04.456Z,58.34
2024-05-09T10:12:04.874Z,60.06
2024-05-09T10:13:03.890Z,58.85
2024-05-09T10:14:03.783Z,57.31
2024-05-09T10:15:03.751Z,57.54
2024-05-09T10:16:04.007Z,57.21
2024-05-09T10:17:03.735Z,56.83
2024-05-09T10:18:03.931Z,53.90
2024-05-09T10:19:03.710Z,53.72
2024-05-09T10:20:07.206Z,54.03
2024-05-09T10:21:03.837Z,55.54
2024-05-09T10:22:03.596Z,55.21
2024-05-09T10:23:03.532Z,54.43
2024-05-09T10:24:03.490Z,55.44
2024-05-09T10:25:04.956Z,55.72
2024-05-09T10:26:03.832Z,55.82
2024-05-09T10:27:03.391Z,54.91
2024-05-09T10:28:03.396Z,54.58
2024-05-09T10:29:03.356Z,53.60
2024-05-09T10:30:06.887Z,53.70
2024-05-09T10:31:03.618Z,54.28
2024-05-09T10:32:03.240Z,54.51
2024-05-09T10:33:03.368Z,54.38
2024-05-09T10:34:03.677Z,53.78
2024-05-09T10:35:03.278Z,53.27
2024-05-09T10:36:03.402Z,52.76
2024-05-09T10:37:04.761Z,53.58
2024-05-09T10:38:03.050Z,53.45
2024-05-09T10:39:03.029Z,52.84
2024-05-09T10:40:05.448Z,52.74
2024-05-09T10:41:03.227Z,53.75
2024-05-09T10:42:02.938Z,53.65
2024-05-09T10:43:05.816Z,54.05
2024-05-09T10:44:02.914Z,52.24
2024-05-09T10:45:02.862Z,52.62
2024-05-09T10:46:02.984Z,51.71
2024-05-09T10:47:03.387Z,51.93
2024-05-09T10:48:03.104Z,51.13
2024-05-09T10:49:06.323Z,52.94
2024-05-09T10:50:03.031Z,52.04
2024-05-09T10:51:02.657Z,50.62
2024-05-09T10:52:03.017Z,49.31
2024-05-09T10:53:02.604Z,50.32
2024-05-09T10:54:02.566Z,51.03
2024-05-09T10:55:05.478Z,50.02
2024-05-09T10:56:02.775Z,50.52
2024-05-09T10:57:02.483Z,50.73
2024-05-09T10:58:02.554Z,50.73
2024-05-09T10:59:02.418Z,50.62
2024-05-09T11:00:02.406Z,50.60
2024-05-09T11:01:06.397Z,49.09
2024-05-09T11:02:02.427Z,49.59
2024-05-09T11:03:02.318Z,47.58
2024-05-09T11:04:02.433Z,48.38
2024-05-09T11:05:02.373Z,48.79
2024-05-09T11:06:02.214Z,48.69
2024-05-09T11:07:05.287Z,48.99
2024-05-09T11:08:02.150Z,48.38
2024-05-09T11:09:02.139Z,47.47
2024-05-09T11:10:02.151Z,49.99
2024-05-09T11:11:02.344Z,51.10
2024-05-09T11:12:02.173Z,52.69
2024-05-09T11:13:02.053Z,49.97
2024-05-09T11:14:01.976Z,49.49
2024-05-09T11:15:01.936Z,49.57
2024-05-09T11:16:02.273Z,49.97
2024-05-09T11:17:01.974Z,49.97
2024-05-09T11:18:01.940Z,51.79
2024-05-09T11:19:02.125Z,49.16
2024-05-09T11:20:01.893Z,47.75
2024-05-09T11:21:02.054Z,47.25
2024-05-09T11:22:01.807Z,47.05
2024-05-09T11:23:01.699Z,46.95
2024-05-09T11:24:01.668Z,47.55
2024-05-09T11:25:01.692Z,48.86
2024-05-09T11:26:01.887Z,48.16
2024-05-09T11:27:01.612Z,47.15
2024-05-09T11:28:01.638Z,47.75
2024-05-09T11:29:01.539Z,47.15
2024-05-09T11:30:01.518Z,47.38
2024-05-09T11:31:01.763Z,47.05
2024-05-09T11:32:01.475Z,47.35
2024-05-09T11:33:01.555Z,48.36
2024-05-09T11:34:01.397Z,48.56
2024-05-09T11:35:01.368Z,48.44
2024-05-09T11:36:01.587Z,50.65
2024-05-09T11:37:01.329Z,51.86
2024-05-09T11:38:01.272Z,50.65
2024-05-09T11:39:01.238Z,50.45
2024-05-09T11:40:01.322Z,48.24
2024-05-09T11:41:01.453Z,46.73
2024-05-09T11:42:01.158Z,45.64
2024-05-09T11:43:01.188Z,45.74
2024-05-09T11:44:01.097Z,46.55
2024-05-09T11:45:01.065Z,46.33
2024-05-09T11:46:01.403Z,46.73
2024-05-09T11:47:01.006Z,47.43
2024-05-09T11:48:01.051Z,47.03
2024-05-09T11:49:01.106Z,45.72
2024-05-09T11:50:01.040Z,44.21
2024-05-09T11:51:01.148Z,45.21
2024-05-09T11:52:00.940Z,46.30
2024-05-09T11:53:00.826Z,47.19
2024-05-09T11:54:00.777Z,48.61
2024-05-09T11:55:00.876Z,50.43
2024-05-09T11:56:00.724Z,49.32
2024-05-09T11:57:00.962Z,49.93
2024-05-09T11:58:00.713Z,48.92
2024-05-09T11:59:00.655Z,50.13
2024-05-09T12:00:00.605Z,49.02
2024-05-09T12:01:00.924Z,47.71
2024-05-09T12:02:00.639Z,46.93
2024-05-09T12:03:00.584Z,46.73
2024-05-09T12:04:00.966Z,46.62
2024-05-09T12:05:00.553Z,46.02
2024-05-09T12:06:00.667Z,46.62
2024-05-09T12:07:00.759Z,46.93
2024-05-09T12:08:00.371Z,46.83
2024-05-09T12:09:00.357Z,47.43
2024-05-09T12:10:00.397Z,46.93
2024-05-09T12:11:00.955Z,46.93
2024-05-09T12:12:00.252Z,46.93
2024-05-09T12:13:00.269Z,50.33
2024-05-09T12:14:00.196Z,48.61
2024-05-09T12:15:00.188Z,47.20
2024-05-09T12:16:00.463Z,47.08
2024-05-09T12:17:00.159Z,46.91
2024-05-09T12:18:02.908Z,48.90
2024-05-09T12:19:00.110Z,49.19
2024-05-09T12:20:00.032Z,48.49
2024-05-09T12:21:00.281Z,48.97
2024-05-09T12:21:59.993Z,47.28
2024-05-09T12:22:59.926Z,47.59
2024-05-09T12:23:59.908Z,47.31
2024-05-09T12:24:59.896Z,47.69
2024-05-09T12:26:00.212Z,48.61
2024-05-09T12:26:59.807Z,48.32
2024-05-09T12:28:00.209Z,49.12
2024-05-09T12:28:59.743Z,48.99
2024-05-09T12:29:59.731Z,48.79
2024-05-09T12:30:59.979Z,48.29
2024-05-09T12:31:59.684Z,46.28
2024-05-09T12:32:59.751Z,46.98
2024-05-09T12:33:59.680Z,45.87
2024-05-09T12:34:59.626Z,46.18
2024-05-09T12:35:59.847Z,46.18
2024-05-09T12:36:59.545Z,45.79
2024-05-09T12:37:59.496Z,45.87
2024-05-09T12:38:59.487Z,45.17
2024-05-09T12:39:59.455Z,45.98
2024-05-09T12:40:59.786Z,45.37
2024-05-09T12:41:59.397Z,46.08
2024-05-09T12:42:59.353Z,45.37
2024-05-09T12:43:59.306Z,46.48
2024-05-09T12:44:59.554Z,46.68
2024-05-09T12:45:59.332Z,45.47
2024-05-09T12:46:59.221Z,46.88
2024-05-09T12:47:59.488Z,46.18
2024-05-09T12:48:59.353Z,46.78
2024-05-09T12:49:59.405Z,47.69
2024-05-09T12:50:59.128Z,45.37
2024-05-09T12:51:59.100Z,45.57
2024-05-09T12:52:59.044Z,45.35
2024-05-09T12:53:59.011Z,45.15
2024-05-09T12:54:59.323Z,46.56
2024-05-09T12:56:02.267Z,48.14
2024-05-09T12:56:58.922Z,46.66